TED STEVENS ANCHORAGE INTL

PANC (ANC)
Anchorage, Alaska
Towered

Vatsim Metar:
PANC 222253Z 36004KT 10SM FEW045 FEW075 BKN120 06/00 A2993 RMK AO2 SLP136 T00560000

No ATC Online

Traffic

Inbound:
Ident
Type
Name
ETA
Phase
AAL843
H/B748/L
Prisco M. Perez SVJC
00:05 Z
Cruse

Outbound:
Ident
Type
Name
Destination
Phase